Time;durP1;ratioP1;P1;durP2;ratioP2;P2;SDS_P1;SDS_P2;PMS_P1;PMS_P2;Temp;Humidity;BMP_temperature;BMP_pressure;BME280_temperature;BME280_humidity;BME280_pressure;Samples;Min_cycle;Max_cycle;Signal;HPM_P1;HPM_P2
2022/01/02 00:00:14;;;;;;;7.33;5.35;;;6.80;92.20;;;;;;1891707;75;21462;-44
2022/01/02 00:02:45;;;;;;;7.97;5.40;;;6.80;92.30;;;;;;1882167;76;21194;-44
2022/01/02 00:05:15;;;;;;;7.87;4.85;;;6.80;92.30;;;;;;1872666;76;21073;-45
2022/01/02 00:07:55;;;;;;;6.67;4.67;;;6.80;92.20;;;;;;1872966;76;21050;-44
2022/01/02 00:10:25;;;;;;;15.98;7.53;;;6.80;92.00;;;;;;1872947;76;21487;-44
2022/01/02 00:12:57;;;;;;;15.68;7.28;;;6.80;92.00;;;;;;1872918;76;21077;-44
2022/01/02 00:15:26;;;;;;;6.05;4.35;;;6.70;92.00;;;;;;1873001;76;21653;-45
2022/01/02 00:17:57;;;;;;;14.23;7.37;;;6.70;91.90;;;;;;1872853;75;21001;-46
2022/01/02 00:20:33;;;;;;;52.58;21.82;;;6.60;92.00;;;;;;1872951;76;21124;-45
2022/01/02 00:23:09;;;;;;;14.18;8.43;;;6.60;92.00;;;;;;1873011;77;21029;-44
2022/01/02 00:25:41;;;;;;;12.15;7.17;;;6.50;91.70;;;;;;1872514;76;21038;-45
2022/01/02 00:28:10;;;;;;;11.40;5.35;;;6.50;91.30;;;;;;1873260;75;21005;-45
2022/01/02 00:30:41;;;;;;;3.47;3.00;;;6.30;91.20;;;;;;1872949;77;21476;-44
2022/01/02 00:33:10;;;;;;;6.85;4.67;;;6.30;91.30;;;;;;1872989;76;20997;-44
2022/01/02 00:35:40;;;;;;;7.25;4.40;;;6.20;91.30;;;;;;1872804;75;21092;-45
2022/01/02 00:38:12;;;;;;;9.38;5.40;;;6.10;91.20;;;;;;1872848;76;21029;-46
2022/01/02 00:40:43;;;;;;;9.73;5.45;;;6.00;91.30;;;;;;1871876;75;21115;-45
2022/01/02 00:43:18;;;;;;;8.13;5.67;;;5.90;91.40;;;;;;1873079;76;21111;-45
2022/01/02 00:45:48;;;;;;;7.22;5.47;;;5.90;91.50;;;;;;1872974;77;21081;-45
2022/01/02 00:48:30;;;;;;;7.22;4.60;;;5.90;91.60;;;;;;1872810;76;21073;-44
2022/01/02 00:51:08;;;;;;;5.35;4.83;;;5.90;91.60;;;;;;1872901;75;21113;-45
2022/01/02 00:53:39;;;;;;;6.75;6.05;;;5.90;91.30;;;;;;1872311;76;21557;-44
2022/01/02 00:56:10;;;;;;;10.25;7.00;;;5.80;91.40;;;;;;1872454;76;21483;-45
2022/01/02 00:58:42;;;;;;;7.97;5.92;;;5.80;91.50;;;;;;1872963;75;21554;-45
2022/01/02 01:01:14;;;;;;;9.60;5.90;;;5.80;91.60;;;;;;1871916;76;21033;-44
2022/01/02 01:03:44;;;;;;;8.50;5.40;;;5.80;91.70;;;;;;1872874;75;21515;-45
2022/01/02 01:06:15;;;;;;;8.63;4.72;;;5.80;91.70;;;;;;1872840;77;21108;-45
2022/01/02 01:08:44;;;;;;;8.20;4.78;;;5.80;91.60;;;;;;1872835;75;21033;-44
2022/01/02 01:11:14;;;;;;;7.60;5.83;;;5.90;91.70;;;;;;1872907;77;21034;-45
2022/01/02 01:13:44;;;;;;;11.55;5.42;;;5.80;91.70;;;;;;1872953;75;21030;-44
2022/01/02 01:16:15;;;;;;;7.00;4.47;;;5.80;91.60;;;;;;1872960;75;21001;-45
2022/01/02 01:18:43;;;;;;;8.58;5.30;;;5.90;91.70;;;;;;1873086;76;21041;-44
2022/01/02 01:21:12;;;;;;;8.30;4.92;;;5.90;91.70;;;;;;1872995;76;21476;-45
2022/01/02 01:23:42;;;;;;;7.37;4.75;;;5.90;91.70;;;;;;1872936;75;21026;-45
2022/01/02 01:26:15;;;;;;;7.78;4.67;;;5.90;91.70;;;;;;1872868;75;21029;-45
2022/01/02 01:28:42;;;;;;;6.80;4.97;;;6.00;91.60;;;;;;1872612;75;21068;-45
2022/01/02 01:31:12;;;;;;;6.58;4.03;;;6.00;91.60;;;;;;1872864;76;21087;-45
2022/01/02 01:33:41;;;;;;;7.33;4.40;;;6.00;91.70;;;;;;1872814;77;21033;-44
2022/01/02 01:36:10;;;;;;;6.37;4.12;;;6.00;91.40;;;;;;1873077;76;21091;-45
2022/01/02 01:38:40;;;;;;;7.03;3.83;;;6.00;91.60;;;;;;1872932;76;21096;-45
2022/01/02 01:41:12;;;;;;;5.72;3.52;;;6.00;91.60;;;;;;1872991;75;21083;-45
2022/01/02 01:43:53;;;;;;;6.42;3.65;;;6.10;91.70;;;;;;1872282;76;21079;-45
2022/01/02 01:46:12;;;;;;;5.83;3.37;;;6.10;91.70;;;;;;1871084;76;21485;-44
2022/01/02 01:48:41;;;;;;;5.28;3.62;;;6.10;91.60;;;;;;1872944;75;21148;-45
2022/01/02 01:51:12;;;;;;;5.58;3.40;;;6.20;91.70;;;;;;1872794;76;21058;-44
2022/01/02 01:53:41;;;;;;;7.05;3.05;;;6.20;91.70;;;;;;1872915;77;21091;-45
2022/01/02 01:56:12;;;;;;;7.25;3.80;;;6.20;91.70;;;;;;1873027;75;21062;-44
2022/01/02 01:58:41;;;;;;;5.70;3.52;;;6.20;91.70;;;;;;1873020;76;21029;-44
2022/01/02 02:01:11;;;;;;;3.98;3.27;;;6.30;91.70;;;;;;1872900;76;21112;-45
2022/01/02 02:03:42;;;;;;;4.17;2.72;;;6.30;91.70;;;;;;1872170;75;21045;-45
2022/01/02 02:06:11;;;;;;;3.90;2.72;;;6.30;91.80;;;;;;1872894;75;21007;-45
2022/01/02 02:08:42;;;;;;;3.42;2.77;;;6.40;91.80;;;;;;1872856;77;21005;-44
2022/01/02 02:11:11;;;;;;;4.87;3.00;;;6.40;91.70;;;;;;1872877;75;21087;-44
2022/01/02 02:13:41;;;;;;;3.47;2.33;;;6.40;91.80;;;;;;1872858;75;21022;-45
2022/01/02 02:16:10;;;;;;;3.98;2.72;;;6.50;91.70;;;;;;1872816;75;21034;-46
2022/01/02 02:18:41;;;;;;;4.53;3.20;;;6.50;91.80;;;;;;1872901;76;21541;-45
2022/01/02 02:21:10;;;;;;;4.78;2.95;;;6.50;91.80;;;;;;1872951;75;21033;-45
2022/01/02 02:23:39;;;;;;;4.83;2.30;;;6.60;91.80;;;;;;1872852;75;21111;-45
2022/01/02 02:26:09;;;;;;;3.40;2.58;;;6.60;91.60;;;;;;1872920;77;21030;-45
2022/01/02 02:28:38;;;;;;;4.17;2.65;;;6.60;91.30;;;;;;1872871;77;21037;-45
2022/01/02 02:31:08;;;;;;;4.30;3.17;;;6.60;91.30;;;;;;1872815;76;21065;-44
2022/01/02 02:33:37;;;;;;;5.25;3.45;;;6.60;91.20;;;;;;1872747;76;21029;-45
2022/01/02 02:36:08;;;;;;;5.67;3.60;;;6.60;91.10;;;;;;1872807;75;21091;-45
2022/01/02 02:38:39;;;;;;;5.95;3.90;;;6.50;91.20;;;;;;1873046;77;21154;-44
2022/01/02 02:41:07;;;;;;;7.45;4.45;;;6.50;91.50;;;;;;1872960;77;21499;-44
2022/01/02 02:43:48;;;;;;;7.65;3.83;;;6.60;91.60;;;;;;1872881;76;21006;-44
2022/01/02 02:49:06;;;;;;;4.55;2.80;;;6.70;91.70;;;;;;1871888;75;21030;-44
2022/01/02 02:54:29;;;;;;;4.35;2.42;;;6.80;91.50;;;;;;1872541;76;21065;-44
2022/01/02 02:56:59;;;;;;;3.22;2.05;;;6.80;91.30;;;;;;1872951;76;21514;-45
2022/01/02 02:59:32;;;;;;;4.72;2.95;;;6.70;91.30;;;;;;1872062;76;21115;-45
2022/01/02 03:02:02;;;;;;;4.90;2.98;;;6.60;91.10;;;;;;1872737;77;21021;-44
2022/01/02 03:04:33;;;;;;;3.77;1.98;;;6.50;91.00;;;;;;1882713;75;21169;-44
2022/01/02 03:07:02;;;;;;;4.22;2.77;;;6.40;91.10;;;;;;1891492;76;21032;-45
2022/01/02 03:09:39;;;;;;;7.25;3.02;;;6.40;91.20;;;;;;1891475;75;21011;-44
2022/01/02 03:12:15;;;;;;;6.05;3.15;;;6.40;91.30;;;;;;1891723;76;21020;-44
2022/01/02 03:14:43;;;;;;;4.87;2.92;;;6.30;91.30;;;;;;1891217;75;21055;-45
2022/01/02 03:17:12;;;;;;;4.75;2.95;;;6.20;91.50;;;;;;1891629;74;21036;-45
2022/01/02 03:19:41;;;;;;;9.08;4.22;;;6.20;91.50;;;;;;1891609;75;21039;-45
2022/01/02 03:22:13;;;;;;;6.10;3.65;;;6.20;91.50;;;;;;1891667;75;21107;-45
2022/01/02 03:24:45;;;;;;;8.00;3.70;;;6.20;91.70;;;;;;1891642;76;21086;-45
2022/01/02 03:27:13;;;;;;;4.95;3.20;;;6.30;91.70;;;;;;1891753;75;21467;-44
2022/01/02 03:29:43;;;;;;;3.83;2.42;;;6.30;91.60;;;;;;1891545;75;21092;-45
2022/01/02 03:32:13;;;;;;;4.30;2.62;;;6.30;91.70;;;;;;1891616;75;21564;-45
2022/01/02 03:34:42;;;;;;;4.97;3.33;;;6.30;91.70;;;;;;1891594;75;21028;-46
2022/01/02 03:37:12;;;;;;;5.75;2.95;;;6.30;91.80;;;;;;1891646;75;21024;-45
2022/01/02 03:39:42;;;;;;;5.50;3.02;;;6.40;91.80;;;;;;1891586;76;21008;-44
2022/01/02 03:42:11;;;;;;;5.53;2.62;;;6.40;91.90;;;;;;1891585;75;21024;-44
2022/01/02 03:44:42;;;;;;;3.77;2.98;;;6.50;91.90;;;;;;1891775;76;21040;-44
2022/01/02 03:47:11;;;;;;;5.37;3.47;;;6.50;91.90;;;;;;1891764;76;21020;-45
2022/01/02 03:49:41;;;;;;;7.97;3.40;;;6.60;91.90;;;;;;1891582;76;21082;-45
2022/01/02 03:52:10;;;;;;;4.50;2.80;;;6.60;91.90;;;;;;1891657;76;21020;-44
2022/01/02 03:54:39;;;;;;;4.45;2.90;;;6.70;91.90;;;;;;1891569;74;21024;-45
2022/01/02 03:57:09;;;;;;;4.12;2.85;;;6.70;91.90;;;;;;1891709;76;21078;-45
2022/01/02 03:59:38;;;;;;;3.62;2.55;;;6.70;91.70;;;;;;1891549;76;21079;-44
2022/01/02 04:02:08;;;;;;;4.08;2.90;;;6.80;91.80;;;;;;1891579;76;21051;-44
2022/01/02 04:04:37;;;;;;;3.08;2.50;;;6.70;91.70;;;;;;1884836;75;21053;-44
2022/01/02 04:07:07;;;;;;;3.75;2.27;;;6.70;91.80;;;;;;1872956;75;21025;-45
2022/01/02 04:09:37;;;;;;;3.55;2.70;;;6.80;91.80;;;;;;1872945;76;21410;-45
2022/01/02 04:12:06;;;;;;;4.03;2.37;;;6.70;91.60;;;;;;1872877;77;21025;-44
2022/01/02 04:14:36;;;;;;;3.27;2.37;;;6.70;91.50;;;;;;1872966;77;21107;-44
2022/01/02 04:17:06;;;;;;;3.00;2.10;;;6.70;91.60;;;;;;1872953;75;21017;-45
2022/01/02 04:19:36;;;;;;;5.85;3.50;;;6.70;91.60;;;;;;1872833;76;21069;-47
2022/01/02 04:22:05;;;;;;;8.88;3.12;;;6.70;91.60;;;;;;1872842;76;21087;-44
2022/01/02 04:24:35;;;;;;;3.33;2.20;;;6.70;91.80;;;;;;1872914;75;21034;-44
2022/01/02 04:27:04;;;;;;;3.02;1.80;;;6.80;91.80;;;;;;1872918;77;21086;-45
2022/01/02 04:29:34;;;;;;;2.35;1.92;;;6.80;91.30;;;;;;1872794;77;21091;-44
2022/01/02 04:32:04;;;;;;;2.02;1.47;;;6.70;91.00;;;;;;1872870;75;21079;-45
2022/01/02 04:34:33;;;;;;;3.05;1.92;;;6.70;91.10;;;;;;1872840;76;21034;-46
2022/01/02 04:37:04;;;;;;;4.53;2.15;;;6.60;91.20;;;;;;1872857;76;21278;-46
2022/01/02 04:39:33;;;;;;;4.05;2.40;;;6.60;91.30;;;;;;1873020;76;21049;-44
2022/01/02 04:42:04;;;;;;;3.37;2.02;;;6.60;91.40;;;;;;1872861;76;21108;-44
2022/01/02 04:44:33;;;;;;;3.40;1.87;;;6.60;91.60;;;;;;1872840;76;21036;-44
2022/01/02 04:47:03;;;;;;;4.00;2.08;;;6.60;91.30;;;;;;1873132;75;21151;-46
2022/01/02 04:49:33;;;;;;;3.95;2.50;;;6.60;91.30;;;;;;1872944;76;21070;-46
2022/01/02 04:52:02;;;;;;;4.20;2.62;;;6.60;91.50;;;;;;1872970;77;21037;-46
2022/01/02 04:54:32;;;;;;;2.40;1.98;;;6.60;91.50;;;;;;1872966;76;21034;-45
2022/01/02 04:57:02;;;;;;;5.20;2.25;;;6.60;91.50;;;;;;1872864;75;21096;-45
2022/01/02 04:59:31;;;;;;;4.40;2.37;;;6.60;91.60;;;;;;1872995;75;21035;-45
2022/01/02 05:02:00;;;;;;;5.78;2.65;;;6.70;91.70;;;;;;1872880;75;21108;-45
2022/01/02 05:04:30;;;;;;;4.08;2.67;;;6.70;91.80;;;;;;1872850;75;21159;-45
2022/01/02 05:07:00;;;;;;;3.37;2.77;;;6.80;91.80;;;;;;1872837;77;21026;-46
2022/01/02 05:09:29;;;;;;;3.67;2.70;;;6.90;91.80;;;;;;1872952;76;21481;-44
2022/01/02 05:11:59;;;;;;;4.22;2.33;;;7.00;91.80;;;;;;1872801;77;21013;-45
2022/01/02 05:14:28;;;;;;;4.95;2.58;;;7.00;91.80;;;;;;1872811;76;21085;-45
2022/01/02 05:16:58;;;;;;;4.20;2.67;;;7.10;91.70;;;;;;1872857;77;21146;-45
2022/01/02 05:19:27;;;;;;;4.00;2.70;;;7.10;91.70;;;;;;1872805;75;21026;-45
2022/01/02 05:21:56;;;;;;;4.78;2.70;;;7.10;91.70;;;;;;1872806;75;21456;-47
2022/01/02 05:24:25;;;;;;;4.20;2.70;;;7.10;91.60;;;;;;1872700;75;21026;-45
2022/01/02 05:26:55;;;;;;;4.22;3.10;;;7.20;91.70;;;;;;1872741;75;21030;-46
2022/01/02 05:29:25;;;;;;;6.42;4.37;;;7.20;91.60;;;;;;1872686;75;21010;-45
2022/01/02 05:31:55;;;;;;;3.70;2.40;;;7.20;91.50;;;;;;1872870;77;21010;-45
2022/01/02 05:34:24;;;;;;;5.70;3.87;;;7.10;91.20;;;;;;1872815;76;21025;-45
2022/01/02 05:36:54;;;;;;;4.90;3.35;;;7.10;91.30;;;;;;1872796;77;21096;-46
2022/01/02 05:39:24;;;;;;;5.37;3.58;;;7.00;91.10;;;;;;1872993;77;21034;-45
2022/01/02 05:41:54;;;;;;;5.00;3.27;;;7.00;91.10;;;;;;1872763;75;21496;-45
2022/01/02 05:44:25;;;;;;;5.75;3.85;;;6.90;91.20;;;;;;1872847;76;21100;-46
2022/01/02 05:46:54;;;;;;;4.70;3.58;;;6.90;91.30;;;;;;1872916;77;21009;-45
2022/01/02 05:49:24;;;;;;;5.20;3.90;;;6.90;91.50;;;;;;1872821;75;21030;-46
2022/01/02 05:51:53;;;;;;;5.67;3.27;;;6.90;91.60;;;;;;1872749;75;21034;-45
2022/01/02 05:54:23;;;;;;;8.73;3.83;;;6.90;91.50;;;;;;1872872;75;21046;-45
2022/01/02 05:56:53;;;;;;;5.95;2.92;;;6.90;91.50;;;;;;1872835;76;21083;-45
2022/01/02 05:59:24;;;;;;;5.58;3.33;;;6.90;91.50;;;;;;1872952;75;21009;-46
2022/01/02 06:01:54;;;;;;;5.10;3.20;;;6.90;91.60;;;;;;1872865;76;21001;-45
2022/01/02 06:04:24;;;;;;;5.62;3.70;;;7.00;91.70;;;;;;1872767;76;21320;-45
2022/01/02 06:06:53;;;;;;;5.15;3.47;;;7.00;91.70;;;;;;1872902;75;21057;-45
2022/01/02 06:09:23;;;;;;;5.12;3.02;;;7.10;91.70;;;;;;1872814;75;21026;-45
2022/01/02 06:11:53;;;;;;;5.17;3.52;;;7.10;91.70;;;;;;1872815;77;21029;-45
2022/01/02 06:14:24;;;;;;;3.55;2.65;;;7.20;91.60;;;;;;1872836;76;21038;-46
2022/01/02 06:16:53;;;;;;;7.45;3.90;;;7.10;91.30;;;;;;1872947;76;21009;-45
2022/01/02 06:19:22;;;;;;;4.10;3.05;;;7.10;91.20;;;;;;1872900;77;21034;-45
2022/01/02 06:21:51;;;;;;;2.85;1.70;;;7.00;91.20;;;;;;1872804;76;21530;-45
2022/01/02 06:24:21;;;;;;;2.33;1.95;;;7.00;90.80;;;;;;1872915;76;21108;-46
2022/01/02 06:26:51;;;;;;;2.47;1.42;;;6.80;90.40;;;;;;1872835;75;21010;-45
2022/01/02 06:29:21;;;;;;;2.10;1.55;;;6.70;90.60;;;;;;1872832;77;21084;-45
2022/01/02 06:31:50;;;;;;;2.33;1.67;;;6.50;90.50;;;;;;1872859;77;21025;-45
2022/01/02 06:34:20;;;;;;;1.70;1.40;;;6.40;90.30;;;;;;1872800;75;21029;-45
2022/01/02 06:36:49;;;;;;;1.55;1.45;;;6.30;90.60;;;;;;1872852;77;21030;-45
2022/01/02 06:39:19;;;;;;;5.03;1.85;;;6.30;90.80;;;;;;1872802;75;21053;-45
2022/01/02 06:41:50;;;;;;;2.47;1.65;;;6.20;90.90;;;;;;1872825;76;21091;-45
2022/01/02 06:44:19;;;;;;;1.25;1.15;;;6.20;91.00;;;;;;1872788;77;21159;-45
2022/01/02 06:46:50;;;;;;;1.37;1.27;;;6.20;90.90;;;;;;1872939;75;21108;-45
2022/01/02 06:49:19;;;;;;;1.55;1.17;;;6.20;91.00;;;;;;1873022;77;21085;-45
2022/01/02 06:51:49;;;;;;;1.57;1.17;;;6.10;90.80;;;;;;1872857;75;21061;-46
2022/01/02 06:54:18;;;;;;;1.10;1.05;;;6.10;90.70;;;;;;1872920;77;21099;-46
2022/01/02 06:56:48;;;;;;;2.12;1.42;;;6.10;90.80;;;;;;1873102;75;21009;-46
2022/01/02 06:59:18;;;;;;;1.75;1.55;;;6.00;90.80;;;;;;1872910;75;21069;-46
2022/01/02 07:01:47;;;;;;;1.67;1.57;;;6.00;90.90;;;;;;1872889;75;21034;-47
2022/01/02 07:04:17;;;;;;;2.12;1.62;;;6.00;90.90;;;;;;1872819;76;21058;-46
2022/01/02 07:06:47;;;;;;;1.40;1.20;;;6.00;91.00;;;;;;1872945;75;21065;-46
2022/01/02 07:09:16;;;;;;;2.00;1.70;;;6.00;91.00;;;;;;1872879;75;21026;-46
2022/01/02 07:11:45;;;;;;;3.25;2.20;;;5.90;91.10;;;;;;1873006;76;21496;-47
2022/01/02 07:14:15;;;;;;;3.52;2.62;;;5.90;91.20;;;;;;1872895;76;21026;-46
2022/01/02 07:16:44;;;;;;;2.60;1.65;;;5.90;91.20;;;;;;1872894;75;21088;-46
2022/01/02 07:19:14;;;;;;;1.70;1.47;;;5.90;91.40;;;;;;1872983;77;21492;-45
2022/01/02 07:21:43;;;;;;;2.77;1.37;;;5.80;91.40;;;;;;1872856;75;21093;-46
2022/01/02 07:24:12;;;;;;;57.05;32.70;;;5.80;91.60;;;;;;1872926;75;21030;-49
2022/01/02 07:26:42;;;;;;;4.92;3.67;;;5.80;91.70;;;;;;1872865;75;21047;-45
2022/01/02 07:29:11;;;;;;;7.37;5.40;;;5.80;91.90;;;;;;1872841;75;21115;-46
2022/01/02 07:31:41;;;;;;;7.20;5.12;;;5.70;91.90;;;;;;1872886;75;21021;-48
2022/01/02 07:34:10;;;;;;;10.98;6.83;;;5.70;91.80;;;;;;1872866;75;21038;-46
2022/01/02 07:36:44;;;;;;;11.20;7.12;;;5.70;91.70;;;;;;1872992;77;21083;-45
2022/01/02 07:39:10;;;;;;;8.35;6.08;;;5.70;91.60;;;;;;1872489;76;21101;-46
2022/01/02 07:41:40;;;;;;;8.80;6.20;;;5.70;91.70;;;;;;1872847;75;21033;-46
2022/01/02 07:44:10;;;;;;;8.15;5.00;;;5.70;91.70;;;;;;1872900;75;21083;-45
2022/01/02 07:46:39;;;;;;;9.78;6.65;;;5.70;91.60;;;;;;1872999;76;21158;-47
2022/01/02 07:49:09;;;;;;;7.42;4.45;;;5.70;91.70;;;;;;1872836;77;21315;-46
2022/01/02 07:51:38;;;;;;;5.28;4.42;;;5.60;91.60;;;;;;1872993;75;21515;-46
2022/01/02 07:54:08;;;;;;;7.05;5.00;;;5.60;91.60;;;;;;1872844;76;21033;-46
2022/01/02 07:56:37;;;;;;;10.30;7.22;;;5.60;91.60;;;;;;1872995;75;21132;-48
2022/01/02 07:59:06;;;;;;;9.28;5.42;;;5.60;91.70;;;;;;1872856;77;21034;-46
2022/01/02 08:01:35;;;;;;;7.65;5.65;;;5.60;91.60;;;;;;1872936;75;21550;-47
2022/01/02 08:04:05;;;;;;;7.85;5.90;;;5.60;91.60;;;;;;1872836;75;21025;-46
2022/01/02 08:06:34;;;;;;;6.28;4.65;;;5.60;91.50;;;;;;1872868;75;21123;-46
2022/01/02 08:09:04;;;;;;;5.87;4.10;;;5.60;91.50;;;;;;1872796;75;21092;-45
2022/01/02 08:11:33;;;;;;;7.03;4.28;;;5.60;91.70;;;;;;1872863;77;21010;-45
2022/01/02 08:14:02;;;;;;;6.85;5.15;;;5.60;91.40;;;;;;1872902;75;21029;-46
2022/01/02 08:16:32;;;;;;;9.45;6.15;;;5.60;91.50;;;;;;1872842;77;21033;-45
2022/01/02 08:19:02;;;;;;;5.00;4.05;;;5.60;91.60;;;;;;1872901;77;21092;-46
2022/01/02 08:21:32;;;;;;;6.30;4.33;;;5.60;91.60;;;;;;1872762;75;21107;-46
2022/01/02 08:24:01;;;;;;;7.35;5.22;;;5.60;91.40;;;;;;1872824;75;21061;-46
2022/01/02 08:26:31;;;;;;;7.50;4.67;;;5.70;91.50;;;;;;1872993;77;21009;-46
2022/01/02 08:29:00;;;;;;;5.17;3.83;;;5.70;91.50;;;;;;1872988;77;21050;-46
2022/01/02 08:31:30;;;;;;;8.35;4.53;;;5.60;91.60;;;;;;1872803;76;21029;-46
2022/01/02 08:34:00;;;;;;;5.15;3.47;;;5.60;91.70;;;;;;1872867;75;21064;-46
2022/01/02 08:36:29;;;;;;;3.65;3.12;;;5.60;91.70;;;;;;1872944;77;21132;-46
2022/01/02 08:38:59;;;;;;;3.58;2.45;;;5.60;91.70;;;;;;1872806;76;21330;-45
2022/01/02 08:41:28;;;;;;;3.65;3.27;;;5.60;91.70;;;;;;1872813;75;21100;-46
2022/01/02 08:43:57;;;;;;;10.78;5.58;;;5.50;92.00;;;;;;1872909;75;21037;-45
2022/01/02 08:46:27;;;;;;;7.20;4.35;;;5.50;91.70;;;;;;1872927;75;21099;-47
2022/01/02 08:48:56;;;;;;;3.15;2.83;;;5.50;91.70;;;;;;1872787;75;21029;-48
2022/01/02 08:51:27;;;;;;;3.12;2.72;;;5.50;91.80;;;;;;1872854;76;21025;-46
2022/01/02 08:53:57;;;;;;;5.67;4.28;;;5.50;91.70;;;;;;1872960;76;21100;-45
2022/01/02 08:56:26;;;;;;;9.43;5.00;;;5.50;91.90;;;;;;1872826;75;21049;-46
2022/01/02 08:58:55;;;;;;;4.75;2.72;;;5.50;91.70;;;;;;1872821;75;21081;-46
2022/01/02 09:01:25;;;;;;;4.60;3.15;;;5.50;91.60;;;;;;1872805;76;21065;-45
2022/01/02 09:03:54;;;;;;;7.12;2.42;;;5.50;91.80;;;;;;1872797;76;21096;-47
2022/01/02 09:06:24;;;;;;;3.25;2.12;;;5.50;91.70;;;;;;1872996;77;21037;-45
2022/01/02 09:08:55;;;;;;;5.95;3.35;;;5.50;91.50;;;;;;1890414;76;21122;-45
2022/01/02 09:11:25;;;;;;;10.00;4.60;;;5.50;91.70;;;;;;1891627;76;21133;-46
2022/01/02 09:13:55;;;;;;;6.65;2.83;;;5.40;91.50;;;;;;1891540;76;21040;-45
2022/01/02 09:16:24;;;;;;;4.55;2.50;;;5.40;91.60;;;;;;1891567;76;21079;-45
2022/01/02 09:18:53;;;;;;;7.92;3.75;;;5.40;91.70;;;;;;1891802;76;21028;-48
2022/01/02 09:21:23;;;;;;;5.62;4.03;;;5.40;91.50;;;;;;1891564;76;21098;-45
2022/01/02 09:23:52;;;;;;;4.53;3.30;;;5.40;91.30;;;;;;1891604;76;21048;-45
2022/01/02 09:26:21;;;;;;;7.15;3.75;;;5.40;91.20;;;;;;1891537;76;21090;-45
2022/01/02 09:28:51;;;;;;;3.02;2.72;;;5.40;91.00;;;;;;1871486;76;21443;-44
2022/01/02 09:31:20;;;;;;;11.30;5.05;;;5.30;90.80;;;;;;1891543;76;21012;-45
2022/01/02 09:33:49;;;;;;;7.15;3.08;;;5.40;91.00;;;;;;1891641;76;21140;-45
2022/01/02 09:36:19;;;;;;;4.53;3.08;;;5.40;90.80;;;;;;1891528;76;21097;-45
2022/01/02 09:38:50;;;;;;;4.90;3.20;;;5.30;90.40;;;;;;1891568;75;21039;-47
2022/01/02 09:41:20;;;;;;;21.93;12.03;;;5.30;90.60;;;;;;1891640;76;21546;-46
2022/01/02 09:43:50;;;;;;;33.95;11.40;;;5.30;90.80;;;;;;1891584;76;21133;-46
2022/01/02 09:46:25;;;;;;;10.63;5.85;;;5.30;90.90;;;;;;1891701;76;21048;-47
2022/01/02 09:48:54;;;;;;;3.98;3.55;;;5.30;91.00;;;;;;1890996;75;21494;-46
2022/01/02 09:51:26;;;;;;;14.10;5.87;;;5.30;91.00;;;;;;1891507;76;21028;-46
2022/01/02 09:53:56;;;;;;;4.05;2.80;;;5.30;91.00;;;;;;1891561;76;21024;-45
2022/01/02 09:56:25;;;;;;;4.65;2.50;;;5.20;90.80;;;;;;1891623;76;21028;-47
2022/01/02 09:58:55;;;;;;;5.95;3.20;;;5.20;90.60;;;;;;1891466;75;21093;-46
2022/01/02 10:01:25;;;;;;;2.87;2.55;;;5.20;90.70;;;;;;1891446;75;21028;-46
2022/01/02 10:03:57;;;;;;;6.40;3.80;;;5.20;90.90;;;;;;1891501;76;21020;-46
2022/01/02 10:06:41;;;;;;;4.00;3.12;;;5.20;90.90;;;;;;1891493;76;21179;-45
2022/01/02 10:09:18;;;;;;;3.62;3.05;;;5.20;90.60;;;;;;1873685;75;21101;-44
2022/01/02 10:11:48;;;;;;;4.72;3.37;;;5.20;90.50;;;;;;1871069;75;21152;-44
2022/01/02 10:14:17;;;;;;;6.15;2.85;;;5.20;90.60;;;;;;1872859;75;21175;-45
2022/01/02 10:16:47;;;;;;;5.62;4.03;;;5.10;90.60;;;;;;1872920;77;21163;-44
2022/01/02 10:19:32;;;;;;;3.40;2.62;;;5.10;90.80;;;;;;1872865;76;21029;-47
2022/01/02 10:22:02;;;;;;;4.25;2.58;;;5.10;90.90;;;;;;1872801;76;21076;-44
2022/01/02 10:24:36;;;;;;;4.15;3.70;;;5.10;90.90;;;;;;1872338;75;21175;-44
2022/01/02 10:27:19;;;;;;;3.47;2.60;;;5.10;91.00;;;;;;1872747;76;21029;-44
2022/01/02 10:29:59;;;;;;;6.15;2.45;;;5.10;91.30;;;;;;1872853;77;21488;-44
2022/01/02 10:32:37;;;;;;;2.98;2.05;;;5.10;91.30;;;;;;1872696;76;21163;-44
2022/01/02 10:35:17;;;;;;;4.60;2.72;;;5.10;91.20;;;;;;1872848;77;21095;-44
2022/01/02 10:37:53;;;;;;;3.85;2.75;;;5.10;91.30;;;;;;1872792;75;21095;-45
2022/01/02 10:40:34;;;;;;;3.27;2.98;;;5.10;91.40;;;;;;1872969;75;21115;-44
2022/01/02 10:43:05;;;;;;;3.42;2.65;;;5.10;91.30;;;;;;1872757;76;21033;-43
2022/01/02 10:45:44;;;;;;;3.10;2.05;;;5.00;91.40;;;;;;1872808;76;21119;-44
2022/01/02 10:48:15;;;;;;;1.72;1.62;;;5.00;91.40;;;;;;1872812;77;21006;-47
2022/01/02 10:51:14;;;;;;;2.25;1.60;;;5.00;91.40;;;;;;1872822;77;21030;-44
2022/01/02 10:53:53;;;;;;;2.55;1.98;;;5.00;91.30;;;;;;1872634;76;21447;-45
2022/01/02 10:56:24;;;;;;;3.42;1.65;;;4.90;91.40;;;;;;1872306;76;21425;-44
2022/01/02 10:58:54;;;;;;;1.20;1.10;;;5.00;91.50;;;;;;1872933;77;21037;-44
2022/01/02 11:01:23;;;;;;;4.00;2.00;;;5.00;91.10;;;;;;1872940;76;21029;-45
2022/01/02 11:03:54;;;;;;;7.00;2.42;;;4.90;91.20;;;;;;1872902;77;21508;-47
2022/01/02 11:06:26;;;;;;;1.57;1.35;;;4.90;91.30;;;;;;1872825;75;21010;-45
2022/01/02 11:08:58;;;;;;;4.10;2.00;;;4.90;91.20;;;;;;1872835;75;21046;-44
2022/01/02 11:11:28;;;;;;;14.73;6.33;;;4.90;91.00;;;;;;1872758;76;21038;-44
2022/01/02 11:13:58;;;;;;;24.72;8.68;;;5.00;91.20;;;;;;1872702;76;21025;-44
2022/01/02 11:16:27;;;;;;;7.47;3.10;;;5.00;91.50;;;;;;1872830;75;21009;-44
2022/01/02 11:18:57;;;;;;;14.98;4.97;;;5.00;91.40;;;;;;1872899;77;21021;-44
2022/01/02 11:21:28;;;;;;;9.68;4.42;;;5.00;91.20;;;;;;1872687;76;21081;-45
2022/01/02 11:24:09;;;;;;;9.13;4.50;;;5.00;90.70;;;;;;1872807;77;21120;-44
2022/01/02 11:27:00;;;;;;;4.33;2.75;;;5.00;90.80;;;;;;1872806;76;21079;-44
2022/01/02 11:29:33;;;;;;;18.02;7.37;;;4.90;90.70;;;;;;1870063;75;21151;-44
2022/01/02 11:32:04;;;;;;;9.75;3.55;;;4.90;90.90;;;;;;1872772;76;21085;-45
2022/01/02 11:34:36;;;;;;;15.23;7.78;;;4.90;91.00;;;;;;1866815;76;21065;-44
2022/01/02 11:37:20;;;;;;;23.67;10.05;;;4.90;91.30;;;;;;1872851;77;21458;-45
2022/01/02 11:40:01;;;;;;;2.47;1.47;;;4.90;91.40;;;;;;1872930;75;21002;-44
2022/01/02 11:42:40;;;;;;;1.77;1.35;;;4.90;91.20;;;;;;1872903;75;21080;-45
2022/01/02 11:45:11;;;;;;;3.77;1.95;;;4.80;91.40;;;;;;1872972;75;21001;-47
2022/01/02 11:47:44;;;;;;;23.80;9.80;;;4.80;91.30;;;;;;1872958;75;21123;-44
2022/01/02 11:50:37;;;;;;;10.90;5.50;;;4.70;91.20;;;;;;1839695;77;21002;-44
2022/01/02 11:53:23;;;;;;;33.75;11.95;;;4.70;91.40;;;;;;1872932;77;21033;-44
2022/01/02 11:55:49;;;;;;;20.15;8.20;;;4.70;91.20;;;;;;1871444;77;21062;-45
2022/01/02 11:58:40;;;;;;;5.67;2.83;;;4.70;91.40;;;;;;1873016;76;21097;-44
2022/01/02 12:01:10;;;;;;;10.43;4.95;;;4.70;91.80;;;;;;1872915;75;21010;-44
2022/01/02 12:03:49;;;;;;;12.70;5.00;;;4.70;91.10;;;;;;1872958;76;21077;-44
2022/01/02 12:06:23;;;;;;;28.83;11.70;;;4.70;91.60;;;;;;1871657;75;21123;-45
2022/01/02 12:08:56;;;;;;;33.02;12.00;;;4.70;91.50;;;;;;1872704;75;21143;-47
2022/01/02 12:11:39;;;;;;;5.28;2.90;;;4.60;91.70;;;;;;1872740;75;21026;-45
2022/01/02 12:14:20;;;;;;;3.85;2.17;;;4.70;91.70;;;;;;1872901;75;21444;-44
2022/01/02 12:16:57;;;;;;;11.10;5.65;;;4.60;91.70;;;;;;1872905;76;21539;-45
2022/01/02 12:19:26;;;;;;;28.57;10.08;;;4.60;91.60;;;;;;1872726;75;21054;-43
2022/01/02 12:22:14;;;;;;;31.23;12.35;;;4.60;91.70;;;;;;1872795;75;21092;-44
2022/01/02 12:24:44;;;;;;;21.60;10.28;;;4.60;91.40;;;;;;1872795;75;21021;-44
2022/01/02 12:27:16;;;;;;;5.05;3.20;;;4.60;91.60;;;;;;1872796;77;21134;-44
2022/01/02 12:29:46;;;;;;;23.35;9.53;;;4.60;91.10;;;;;;1872932;75;21096;-45
2022/01/02 12:32:16;;;;;;;9.95;4.85;;;4.60;90.90;;;;;;1872926;75;21025;-44
2022/01/02 12:34:46;;;;;;;3.17;2.15;;;4.60;90.80;;;;;;1872869;76;21079;-47
2022/01/02 12:37:17;;;;;;;7.75;3.37;;;4.60;90.20;;;;;;1872852;76;21057;-45
2022/01/02 12:39:46;;;;;;;6.20;4.17;;;4.60;90.50;;;;;;1872835;76;21481;-43
2022/01/02 12:42:15;;;;;;;7.28;4.42;;;4.60;90.80;;;;;;1872862;75;21096;-45
2022/01/02 12:44:45;;;;;;;4.60;2.20;;;4.60;90.80;;;;;;1872866;76;21476;-44
2022/01/02 12:47:15;;;;;;;2.80;2.37;;;4.50;90.80;;;;;;1872754;76;21049;-44
2022/01/02 12:49:44;;;;;;;5.03;2.62;;;4.50;90.70;;;;;;1872900;75;21029;-45
2022/01/02 12:52:16;;;;;;;3.50;2.30;;;4.50;90.50;;;;;;1872834;77;21104;-44
2022/01/02 12:54:49;;;;;;;5.42;3.27;;;4.40;90.40;;;;;;1872911;77;21103;-45
2022/01/02 12:57:21;;;;;;;8.55;2.22;;;4.40;90.60;;;;;;1872785;77;21026;-46
2022/01/02 12:59:51;;;;;;;5.70;2.60;;;4.40;90.60;;;;;;1872630;76;21526;-45
2022/01/02 13:02:25;;;;;;;8.03;2.47;;;4.30;90.50;;;;;;1872533;76;21530;-46
2022/01/02 13:04:56;;;;;;;7.33;3.12;;;4.30;90.50;;;;;;1872793;75;21177;-45
2022/01/02 13:07:31;;;;;;;3.33;2.12;;;4.20;90.60;;;;;;1872756;75;21029;-47
2022/01/02 13:10:03;;;;;;;2.22;1.90;;;4.20;90.20;;;;;;1872714;75;21092;-44
2022/01/02 13:12:36;;;;;;;10.45;5.50;;;4.10;90.60;;;;;;1872856;75;21022;-48
2022/01/02 13:15:10;;;;;;;4.42;3.35;;;4.10;90.50;;;;;;1872764;75;21021;-44
2022/01/02 13:17:48;;;;;;;4.42;2.40;;;4.00;90.10;;;;;;1872797;77;21014;-44
2022/01/02 13:20:20;;;;;;;1.70;1.50;;;4.00;90.10;;;;;;1872619;76;21054;-45